createdAt,value
2019-02-23T00:00:42.296Z,59.70
2019-02-23T00:02:21.113Z,59.70
2019-02-23T00:03:56.514Z,59.70
2019-02-23T00:05:32.590Z,59.70
2019-02-23T00:07:07.730Z,59.80
2019-02-23T00:08:43.092Z,59.70
2019-02-23T00:10:18.225Z,59.80
2019-02-23T00:11:53.338Z,59.90
2019-02-23T00:13:28.486Z,60.00
2019-02-23T00:15:07.017Z,60.00
2019-02-23T00:16:42.114Z,59.90
2019-02-23T00:18:17.232Z,60.00
2019-02-23T00:19:54.153Z,60.10
2019-02-23T00:21:30.461Z,60.10
2019-02-23T00:23:05.593Z,60.30
2019-02-23T00:24:40.719Z,60.20
2019-02-23T00:26:15.857Z,60.30
2019-02-23T00:27:50.989Z,60.40
2019-02-23T00:29:26.101Z,60.40
2019-02-23T00:31:01.247Z,60.50
2019-02-23T00:32:36.375Z,60.50
2019-02-23T00:34:11.508Z,61.20
2019-02-23T00:35:46.915Z,60.40
2019-02-23T00:37:22.055Z,60.20
2019-02-23T00:38:57.230Z,60.10
2019-02-23T00:40:35.087Z,60.00
2019-02-23T00:42:10.177Z,60.10
2019-02-23T00:43:45.284Z,60.10
2019-02-23T00:45:20.392Z,60.30
2019-02-23T00:46:56.507Z,60.50
2019-02-23T00:48:31.594Z,60.70
2019-02-23T00:50:06.867Z,60.90
2019-02-23T00:51:41.950Z,61.00
2019-02-23T00:53:17.382Z,61.10
2019-02-23T00:54:52.469Z,61.10
2019-02-23T00:56:28.513Z,61.10
2019-02-23T00:58:04.000Z,61.00
2019-02-23T00:59:39.126Z,61.00
2019-02-23T01:01:14.305Z,61.80
2019-02-23T01:02:49.434Z,60.80
2019-02-23T01:04:24.545Z,60.80
2019-02-23T01:05:59.647Z,60.70
2019-02-23T01:07:34.781Z,60.70
2019-02-23T01:09:10.177Z,60.80
2019-02-23T01:10:45.543Z,60.80
2019-02-23T01:12:20.732Z,60.80
2019-02-23T01:13:55.863Z,60.80
2019-02-23T01:15:31.124Z,60.80
2019-02-23T01:17:06.272Z,60.80
2019-02-23T01:18:41.464Z,60.80
2019-02-23T01:20:16.573Z,60.90
2019-02-23T01:21:51.982Z,60.90
2019-02-23T01:23:27.350Z,60.90
2019-02-23T01:25:02.450Z,61.00
2019-02-23T01:26:37.587Z,61.00
2019-02-23T01:28:12.811Z,60.90
2019-02-23T01:29:48.004Z,61.10
2019-02-23T01:31:23.095Z,61.00
2019-02-23T01:32:58.223Z,61.10
2019-02-23T01:34:34.591Z,61.20
2019-02-23T01:36:09.724Z,61.20
2019-02-23T01:37:44.878Z,61.30
2019-02-23T01:39:21.209Z,61.50
2019-02-23T01:40:56.341Z,61.40
2019-02-23T01:42:31.571Z,61.50
2019-02-23T01:44:06.938Z,61.60
2019-02-23T01:45:42.782Z,61.50
2019-02-23T01:47:18.196Z,61.50
2019-02-23T01:48:53.324Z,61.50
2019-02-23T01:50:28.432Z,61.50
2019-02-23T01:52:03.549Z,61.50
2019-02-23T01:53:38.679Z,61.40
2019-02-23T01:55:13.779Z,61.40
2019-02-23T01:56:48.900Z,61.40
2019-02-23T01:58:24.028Z,61.30
2019-02-23T01:59:59.141Z,61.30
2019-02-23T02:01:34.242Z,61.30
2019-02-23T02:03:09.373Z,61.30
2019-02-23T02:04:44.732Z,61.30
2019-02-23T02:06:19.840Z,61.40
2019-02-23T02:07:55.128Z,61.50
2019-02-23T02:09:30.223Z,61.20
2019-02-23T02:11:05.334Z,61.50
2019-02-23T02:12:40.463Z,61.60
2019-02-23T02:14:15.821Z,61.50
2019-02-23T02:15:50.949Z,61.40
2019-02-23T02:17:26.061Z,61.40
2019-02-23T02:23:17.407Z,61.30
2019-02-23T02:24:52.504Z,61.40
2019-02-23T02:26:27.669Z,61.30
2019-02-23T02:28:02.781Z,61.30
2019-02-23T02:29:38.133Z,61.40
2019-02-23T02:31:13.225Z,61.10
2019-02-23T02:32:48.330Z,61.10
2019-02-23T02:34:23.711Z,61.10
2019-02-23T02:35:58.804Z,61.10
2019-02-23T02:37:33.902Z,61.20
2019-02-23T02:39:11.519Z,61.20
2019-02-23T02:40:46.604Z,61.30
2019-02-23T02:42:21.695Z,61.30
2019-02-23T02:43:57.279Z,61.30
2019-02-23T02:45:32.374Z,61.30
2019-02-23T02:47:07.481Z,61.40
2019-02-23T02:48:42.584Z,61.40
2019-02-23T02:50:24.131Z,61.30
2019-02-23T02:51:54.482Z,61.40
2019-02-23T02:53:29.618Z,61.40
2019-02-23T02:55:06.643Z,61.50
2019-02-23T02:56:42.013Z,61.60
2019-02-23T02:58:17.115Z,61.50
2019-02-23T02:59:52.492Z,61.60
2019-02-23T03:01:27.591Z,61.60
2019-02-23T03:03:02.708Z,61.60
2019-02-23T03:04:37.810Z,61.60
2019-02-23T03:06:12.899Z,61.60
2019-02-23T03:07:48.004Z,61.50
2019-02-23T03:09:23.121Z,61.40
2019-02-23T03:10:58.215Z,61.20
2019-02-23T03:12:33.336Z,62.00
2019-02-23T03:14:08.443Z,61.20
2019-02-23T03:15:43.537Z,61.20
2019-02-23T03:17:18.930Z,61.10
2019-02-23T03:18:54.065Z,61.10
2019-02-23T03:20:36.685Z,61.20
2019-02-23T03:22:05.951Z,61.10
2019-02-23T03:23:42.183Z,61.20
2019-02-23T03:25:17.542Z,61.20
2019-02-23T03:26:52.633Z,61.20
2019-02-23T03:28:27.753Z,61.20
2019-02-23T03:30:02.931Z,61.20
2019-02-23T03:31:38.146Z,61.20
2019-02-23T03:33:13.223Z,61.20
2019-02-23T03:34:48.320Z,61.20
2019-02-23T03:36:23.419Z,61.10
2019-02-23T03:37:58.789Z,61.10
2019-02-23T03:39:33.903Z,61.00
2019-02-23T03:41:09.000Z,61.70
2019-02-23T03:42:44.101Z,60.90
2019-02-23T03:44:19.264Z,61.70
2019-02-23T03:45:54.565Z,61.00
2019-02-23T03:47:29.930Z,60.90
2019-02-23T03:49:05.048Z,60.90
2019-02-23T03:50:48.755Z,60.80
2019-02-23T03:52:16.960Z,60.70
2019-02-23T03:53:52.062Z,60.60
2019-02-23T03:55:28.123Z,60.60
2019-02-23T03:57:03.233Z,60.60
2019-02-23T03:58:38.330Z,60.70
2019-02-23T04:00:14.410Z,60.60
2019-02-23T04:01:49.496Z,60.70
2019-02-23T04:03:24.608Z,60.70
2019-02-23T04:04:59.710Z,60.70
2019-02-23T04:06:34.802Z,60.80
2019-02-23T04:08:10.159Z,60.70
2019-02-23T04:09:45.266Z,60.70
2019-02-23T04:11:20.607Z,60.80
2019-02-23T04:12:55.708Z,60.80
2019-02-23T04:14:30.828Z,60.70
2019-02-23T04:16:05.947Z,60.70
2019-02-23T04:17:41.067Z,60.80
2019-02-23T04:19:16.201Z,60.80
2019-02-23T04:21:01.412Z,60.80
2019-02-23T04:22:28.100Z,60.90
2019-02-23T04:24:03.216Z,60.90
2019-02-23T04:25:38.312Z,61.00
2019-02-23T04:27:13.737Z,61.10
2019-02-23T04:28:48.852Z,61.20
2019-02-23T04:30:23.942Z,61.20
2019-02-23T04:31:59.046Z,61.30
2019-02-23T04:33:34.413Z,61.20
2019-02-23T04:35:09.788Z,61.30
2019-02-23T04:36:44.892Z,61.30
2019-02-23T04:38:19.996Z,61.50
2019-02-23T04:39:55.145Z,61.50
2019-02-23T04:41:42.958Z,61.40
2019-02-23T04:43:18.056Z,61.20
2019-02-23T04:44:53.164Z,61.50
2019-02-23T04:46:28.258Z,61.60
2019-02-23T04:48:03.365Z,61.60
2019-02-23T04:49:38.462Z,61.70
2019-02-23T04:51:14.866Z,61.80
2019-02-23T04:52:50.057Z,61.90
2019-02-23T04:54:25.159Z,61.80
2019-02-23T04:56:00.257Z,61.80
2019-02-23T04:57:35.346Z,61.90
2019-02-23T04:59:10.448Z,61.90
2019-02-23T05:00:45.541Z,62.00
2019-02-23T05:02:20.638Z,62.00
2019-02-23T05:03:55.747Z,62.10
2019-02-23T05:05:30.848Z,62.20
2019-02-23T05:07:05.969Z,62.20
2019-02-23T05:08:41.035Z,62.30
2019-02-23T05:10:16.143Z,62.40
2019-02-23T05:11:51.753Z,62.40
2019-02-23T05:13:26.924Z,62.50
2019-02-23T05:15:02.020Z,61.90
2019-02-23T05:16:38.287Z,62.60
2019-02-23T05:18:14.528Z,62.70
2019-02-23T05:19:49.621Z,62.80
2019-02-23T05:21:26.806Z,63.00
2019-02-23T05:23:01.841Z,63.50
2019-02-23T05:24:37.246Z,62.90
2019-02-23T05:26:12.347Z,63.00
2019-02-23T05:27:47.443Z,63.00
2019-02-23T05:29:22.545Z,63.10
2019-02-23T05:30:57.643Z,63.20
2019-02-23T05:32:32.742Z,63.30
2019-02-23T05:34:07.836Z,63.40
2019-02-23T05:35:42.950Z,63.50
2019-02-23T05:37:18.047Z,63.60
2019-02-23T05:38:53.149Z,63.60
2019-02-23T05:40:28.270Z,63.60
2019-02-23T05:42:03.445Z,63.70
2019-02-23T05:43:38.808Z,63.70
2019-02-23T05:45:15.035Z,63.80
2019-02-23T05:46:50.129Z,64.40
2019-02-23T05:48:25.539Z,63.70
2019-02-23T05:50:00.642Z,63.80
2019-02-23T05:51:38.905Z,63.80
2019-02-23T05:53:12.538Z,63.70
2019-02-23T05:54:48.623Z,63.80
2019-02-23T05:56:23.798Z,63.90
2019-02-23T05:57:59.174Z,63.80
2019-02-23T05:59:34.282Z,63.80
2019-02-23T06:01:09.373Z,63.90
2019-02-23T06:02:45.521Z,63.80
2019-02-23T06:04:21.683Z,63.80
2019-02-23T06:05:56.792Z,63.80
2019-02-23T06:07:31.888Z,63.80
2019-02-23T06:09:06.984Z,63.90
2019-02-23T06:10:44.625Z,63.80
2019-02-23T06:12:19.153Z,63.80
2019-02-23T06:13:54.249Z,63.80
2019-02-23T06:15:29.354Z,63.80
2019-02-23T06:17:04.452Z,64.50
2019-02-23T06:18:39.544Z,63.80
2019-02-23T06:20:16.112Z,63.90
2019-02-23T06:21:54.040Z,63.80
2019-02-23T06:23:28.018Z,63.90
2019-02-23T06:25:03.369Z,63.90
2019-02-23T06:26:38.458Z,63.80
2019-02-23T06:28:13.557Z,63.90
2019-02-23T06:29:48.671Z,63.80
2019-02-23T06:31:23.766Z,63.80
2019-02-23T06:32:58.860Z,63.90
2019-02-23T06:34:33.975Z,63.80
2019-02-23T06:36:09.076Z,63.80
2019-02-23T06:37:44.169Z,63.90
2019-02-23T06:39:19.345Z,63.90
2019-02-23T06:40:54.456Z,63.90
2019-02-23T06:42:29.546Z,63.90
2019-02-23T06:44:04.639Z,63.90
2019-02-23T06:45:39.744Z,63.90
2019-02-23T06:47:14.985Z,64.10
2019-02-23T06:48:50.339Z,64.20
2019-02-23T06:50:25.447Z,64.20
2019-02-23T06:52:04.357Z,64.20
2019-02-23T06:53:39.747Z,64.40
2019-02-23T06:55:14.857Z,65.10
2019-02-23T06:56:49.947Z,64.40
2019-02-23T06:58:25.127Z,64.30
2019-02-23T07:00:00.457Z,64.30
2019-02-23T07:01:35.504Z,64.30
2019-02-23T07:03:10.611Z,64.30
2019-02-23T07:04:46.595Z,64.40
2019-02-23T07:06:21.699Z,64.60
2019-02-23T07:07:56.789Z,64.60
2019-02-23T07:09:32.260Z,64.70
2019-02-23T07:11:07.544Z,64.80
2019-02-23T07:12:42.633Z,64.80
2019-02-23T07:14:17.729Z,64.80
2019-02-23T07:15:52.836Z,64.80
2019-02-23T07:17:27.932Z,65.00
2019-02-23T07:19:03.033Z,64.90
2019-02-23T07:20:44.146Z,64.70
2019-02-23T07:22:15.994Z,64.70
2019-02-23T07:23:51.194Z,64.40
2019-02-23T07:25:26.572Z,64.30
2019-02-23T07:27:01.672Z,64.20
2019-02-23T07:28:36.764Z,64.20
2019-02-23T07:30:14.968Z,64.20
2019-02-23T07:31:50.061Z,64.10
2019-02-23T07:33:32.923Z,63.90
2019-02-23T07:35:02.035Z,63.70
2019-02-23T07:36:37.139Z,63.40
2019-02-23T07:38:12.237Z,63.30
2019-02-23T07:39:47.340Z,62.80
2019-02-23T07:41:22.442Z,63.00
2019-02-23T07:42:57.591Z,61.80
2019-02-23T07:44:32.639Z,61.20
2019-02-23T07:46:07.755Z,60.90
2019-02-23T07:47:42.846Z,60.40
2019-02-23T07:49:17.944Z,60.10
2019-02-23T07:50:53.055Z,59.90
2019-02-23T07:52:29.136Z,59.60
2019-02-23T07:54:04.241Z,59.20
2019-02-23T07:55:39.346Z,59.00
2019-02-23T07:57:14.441Z,59.10
2019-02-23T07:58:49.535Z,58.80
2019-02-23T08:00:24.643Z,58.70
2019-02-23T08:01:59.733Z,58.40
2019-02-23T08:03:35.795Z,58.20
2019-02-23T08:05:11.072Z,57.90
2019-02-23T08:06:46.500Z,57.30
2019-02-23T08:08:21.595Z,57.00
2019-02-23T08:09:56.716Z,56.80
2019-02-23T08:11:31.822Z,56.30
2019-02-23T08:13:06.914Z,56.40
2019-02-23T08:14:42.021Z,56.40
2019-02-23T08:16:17.992Z,55.60
2019-02-23T08:17:53.087Z,55.60
2019-02-23T08:19:28.195Z,55.30
2019-02-23T08:21:03.303Z,55.00
2019-02-23T08:22:38.404Z,54.40
2019-02-23T08:24:13.505Z,54.10
2019-02-23T08:25:48.613Z,53.80
2019-02-23T08:27:23.711Z,53.60
2019-02-23T08:28:58.806Z,52.50
2019-02-23T08:30:33.910Z,51.50
2019-02-23T08:32:09.008Z,51.00
2019-02-23T08:33:44.107Z,50.60
2019-02-23T08:35:19.205Z,49.80
2019-02-23T08:36:54.310Z,48.50
2019-02-23T08:38:29.409Z,48.50
2019-02-23T08:40:11.040Z,48.40
2019-02-23T08:41:46.292Z,48.60
2019-02-23T08:43:21.385Z,48.80
2019-02-23T08:44:56.732Z,48.80
2019-02-23T08:46:32.099Z,48.60
2019-02-23T08:48:07.197Z,48.30
2019-02-23T08:49:42.579Z,47.20
2019-02-23T08:51:18.489Z,46.10
2019-02-23T08:52:53.862Z,45.80
2019-02-23T08:54:28.972Z,45.70
2019-02-23T08:56:04.087Z,45.70
2019-02-23T08:57:39.185Z,45.40
2019-02-23T08:59:14.276Z,45.40
2019-02-23T09:00:49.399Z,45.00
2019-02-23T09:02:24.492Z,44.30
2019-02-23T09:03:59.591Z,43.70
2019-02-23T09:05:34.694Z,43.60
2019-02-23T09:07:09.797Z,43.60
2019-02-23T09:08:44.889Z,43.50
2019-02-23T09:10:19.990Z,43.40
2019-02-23T09:11:55.096Z,43.30
2019-02-23T09:13:30.186Z,42.70
2019-02-23T09:15:07.200Z,42.40
2019-02-23T09:16:42.308Z,42.50
2019-02-23T09:18:17.407Z,42.30
2019-02-23T09:19:52.810Z,41.40
2019-02-23T09:21:27.927Z,41.80
2019-02-23T09:23:03.029Z,42.10
2019-02-23T09:24:38.149Z,41.20
2019-02-23T09:26:13.246Z,41.30
2019-02-23T09:27:49.171Z,41.50
2019-02-23T09:29:24.275Z,41.50
2019-02-23T09:30:59.457Z,41.30
2019-02-23T09:32:34.587Z,41.40
2019-02-23T09:34:09.688Z,42.30
2019-02-23T09:35:45.136Z,42.10
2019-02-23T09:37:20.254Z,42.00
2019-02-23T09:38:55.360Z,42.10
2019-02-23T09:40:30.464Z,42.00
2019-02-23T09:42:07.693Z,41.80
2019-02-23T09:43:42.662Z,41.30
2019-02-23T09:45:17.781Z,40.50
2019-02-23T09:46:52.896Z,40.50
2019-02-23T09:48:28.012Z,40.20
2019-02-23T09:50:03.121Z,40.20
2019-02-23T09:51:38.243Z,39.70
2019-02-23T09:53:13.350Z,39.80
2019-02-23T09:54:49.594Z,40.10
2019-02-23T09:56:25.683Z,39.90
2019-02-23T09:58:00.797Z,40.00
2019-02-23T09:59:35.901Z,40.00
2019-02-23T10:01:11.065Z,40.00
2019-02-23T10:02:46.170Z,40.00
2019-02-23T10:04:21.294Z,40.00
2019-02-23T10:05:57.377Z,40.10
2019-02-23T10:07:32.499Z,40.30
2019-02-23T10:09:07.599Z,40.00
2019-02-23T10:10:42.982Z,40.10
2019-02-23T10:12:18.452Z,39.80
2019-02-23T10:13:53.558Z,39.40
2019-02-23T10:15:28.683Z,39.40
2019-02-23T10:17:03.797Z,39.30
2019-02-23T10:18:38.908Z,39.30
2019-02-23T10:20:15.218Z,39.30
2019-02-23T10:21:50.359Z,39.40
2019-02-23T10:23:25.466Z,39.50
2019-02-23T10:25:00.585Z,39.40
2019-02-23T10:26:35.690Z,38.70
2019-02-23T10:28:10.798Z,38.70
2019-02-23T10:29:45.910Z,38.50
2019-02-23T10:31:21.021Z,38.60
2019-02-23T10:32:56.144Z,38.60
2019-02-23T10:34:31.250Z,38.20
2019-02-23T10:36:06.352Z,38.00
2019-02-23T10:37:41.457Z,37.80
2019-02-23T10:39:16.883Z,37.90
2019-02-23T10:40:51.996Z,38.00
2019-02-23T10:42:27.112Z,38.10
2019-02-23T10:44:02.212Z,38.10
2019-02-23T10:45:37.325Z,37.90
2019-02-23T10:47:12.498Z,38.10
2019-02-23T10:48:47.604Z,38.60
2019-02-23T10:50:23.685Z,38.70
2019-02-23T10:51:58.798Z,38.60
2019-02-23T10:53:33.899Z,38.40
2019-02-23T10:55:12.029Z,38.50
2019-02-23T10:56:47.129Z,38.80
2019-02-23T10:58:22.236Z,38.60
2019-02-23T10:59:57.659Z,38.70
2019-02-23T11:01:32.766Z,38.70
2019-02-23T11:03:07.883Z,38.60
2019-02-23T11:04:42.981Z,38.40
2019-02-23T11:06:18.091Z,38.40
2019-02-23T11:07:53.193Z,38.50
2019-02-23T11:09:29.931Z,38.20
2019-02-23T11:11:05.106Z,37.80
2019-02-23T11:12:40.220Z,37.40
2019-02-23T11:14:15.677Z,37.30
2019-02-23T11:15:51.624Z,37.40
2019-02-23T11:17:26.742Z,37.40
2019-02-23T11:19:01.849Z,37.50
2019-02-23T11:20:37.328Z,37.30
2019-02-23T11:22:12.519Z,37.20
2019-02-23T11:23:47.619Z,37.10
2019-02-23T11:25:23.761Z,37.00
2019-02-23T11:26:59.169Z,36.30
2019-02-23T11:28:34.275Z,36.30
2019-02-23T11:30:14.403Z,36.30
2019-02-23T11:31:49.543Z,36.00
2019-02-23T11:33:24.659Z,36.10
2019-02-23T11:34:59.766Z,36.10
2019-02-23T11:36:35.174Z,36.10
2019-02-23T11:38:10.608Z,36.20
2019-02-23T11:39:45.728Z,35.80
2019-02-23T11:41:21.820Z,35.70
2019-02-23T11:42:56.939Z,35.80
2019-02-23T11:44:32.039Z,35.40
2019-02-23T11:46:07.145Z,34.90
2019-02-23T11:47:42.256Z,34.70
2019-02-23T11:49:17.363Z,34.80
2019-02-23T11:50:52.770Z,35.30
2019-02-23T11:52:27.888Z,35.50
2019-02-23T11:54:02.988Z,35.40
2019-02-23T11:55:38.087Z,35.50
2019-02-23T11:57:13.202Z,35.60
2019-02-23T11:58:48.625Z,34.70
2019-02-23T12:00:23.724Z,34.00
2019-02-23T12:01:58.827Z,34.20
2019-02-23T12:03:33.939Z,34.20
2019-02-23T12:05:10.447Z,34.10
2019-02-23T12:06:45.815Z,34.10
2019-02-23T12:08:22.058Z,34.10
2019-02-23T12:09:57.507Z,34.10
2019-02-23T12:11:32.611Z,34.10
2019-02-23T12:13:08.070Z,33.90
2019-02-23T12:14:43.172Z,33.60
2019-02-23T12:16:18.654Z,33.50
2019-02-23T12:17:53.750Z,33.60
2019-02-23T12:19:28.865Z,33.80
2019-02-23T12:21:03.970Z,33.60
2019-02-23T12:22:39.080Z,33.40
2019-02-23T12:24:14.185Z,33.50
2019-02-23T12:25:49.286Z,33.60
2019-02-23T12:27:24.409Z,33.40
2019-02-23T12:28:59.511Z,33.40
2019-02-23T12:30:34.909Z,33.50
2019-02-23T12:32:10.042Z,33.10
2019-02-23T12:33:45.164Z,32.80
2019-02-23T12:35:20.616Z,33.10
2019-02-23T12:36:57.514Z,33.10
2019-02-23T12:38:32.534Z,33.20
2019-02-23T12:40:09.644Z,33.50
2019-02-23T12:41:44.742Z,33.60
2019-02-23T12:43:20.842Z,33.30
2019-02-23T12:44:55.927Z,33.10
2019-02-23T12:46:31.052Z,32.80
2019-02-23T12:48:06.147Z,32.70
2019-02-23T12:49:41.251Z,32.60
2019-02-23T12:51:17.429Z,32.60
2019-02-23T12:52:52.546Z,32.60
2019-02-23T12:54:30.507Z,32.60
2019-02-23T12:56:04.463Z,32.90
2019-02-23T12:57:39.569Z,32.90
2019-02-23T12:59:15.048Z,32.10
2019-02-23T13:00:50.146Z,31.90
2019-02-23T13:02:25.261Z,32.70
2019-02-23T13:04:00.385Z,31.80
2019-02-23T13:05:35.491Z,30.60
2019-02-23T13:07:10.629Z,31.00
2019-02-23T13:09:14.762Z,31.20
2019-02-23T13:10:52.389Z,31.20
2019-02-23T13:12:43.907Z,31.30
2019-02-23T13:14:47.245Z,31.20
2019-02-23T13:16:27.381Z,31.30
2019-02-23T13:18:12.964Z,30.80
2019-02-23T13:20:16.672Z,30.70
2019-02-23T13:22:14.542Z,30.30
2019-02-23T13:24:05.759Z,31.00
2019-02-23T13:25:54.727Z,31.10
2019-02-23T13:27:37.436Z,30.40
2019-02-23T13:29:39.923Z,30.30
2019-02-23T13:31:31.875Z,30.20
2019-02-23T13:33:32.904Z,30.50
2019-02-23T13:35:27.740Z,30.20
2019-02-23T13:37:28.384Z,30.00
2019-02-23T13:39:14.199Z,30.30
2019-02-23T13:41:28.871Z,30.20
2019-02-23T13:43:29.801Z,30.30
2019-02-23T13:45:24.957Z,30.50
2019-02-23T13:47:31.510Z,30.30
2019-02-23T13:49:33.524Z,29.70
2019-02-23T13:51:48.536Z,29.40
2019-02-23T13:53:48.214Z,29.10
2019-02-23T13:55:52.193Z,29.60
2019-02-23T13:57:49.549Z,29.60
2019-02-23T13:59:35.937Z,29.60
2019-02-23T14:01:18.747Z,29.70
2019-02-23T14:03:24.450Z,29.70
2019-02-23T14:05:19.657Z,29.70
2019-02-23T14:07:06.277Z,29.50
2019-02-23T14:08:46.261Z,29.50
2019-02-23T14:10:57.278Z,29.70
2019-02-23T14:12:58.156Z,29.30
2019-02-23T14:15:05.107Z,29.40
2019-02-23T14:17:07.669Z,29.50
2019-02-23T14:18:59.069Z,29.60
2019-02-23T14:21:09.626Z,29.60
2019-02-23T14:23:11.563Z,29.90
2019-02-23T14:25:08.240Z,29.90
2019-02-23T14:27:04.576Z,29.80
2019-02-23T14:29:19.724Z,29.90
2019-02-23T14:31:09.115Z,30.00
2019-02-23T14:33:09.315Z,30.40
2019-02-23T14:34:58.173Z,29.70
2019-02-23T14:37:03.917Z,29.70
2019-02-23T14:39:06.446Z,29.80
2019-02-23T14:40:55.137Z,29.90
2019-02-23T14:42:56.104Z,29.80
2019-02-23T14:45:00.188Z,29.70
2019-02-23T14:46:54.346Z,29.60
2019-02-23T14:48:46.045Z,29.60
2019-02-23T14:50:54.366Z,29.60
2019-02-23T14:52:36.743Z,29.60
2019-02-23T14:54:31.347Z,29.70
2019-02-23T14:56:20.009Z,29.60
2019-02-23T14:58:32.101Z,29.70
2019-02-23T15:00:34.765Z,29.70
2019-02-23T15:02:23.410Z,29.90
2019-02-23T15:04:29.955Z,30.00
2019-02-23T15:06:36.843Z,30.10
2019-02-23T15:08:37.213Z,29.80
2019-02-23T15:10:28.992Z,29.90
2019-02-23T15:12:21.009Z,30.00
2019-02-23T15:14:13.012Z,30.00
2019-02-23T15:16:18.949Z,30.20
2019-02-23T15:18:30.477Z,30.40
2019-02-23T15:20:31.424Z,30.80
2019-02-23T15:22:31.815Z,31.10
2019-02-23T15:24:33.280Z,30.90
2019-02-23T15:26:51.036Z,30.70
2019-02-23T15:28:37.670Z,30.70
2019-02-23T15:30:51.087Z,31.00
2019-02-23T15:33:11.424Z,31.10
2019-02-23T15:35:09.826Z,31.50
2019-02-23T15:37:04.180Z,31.50
2019-02-23T15:39:12.759Z,31.50
2019-02-23T15:41:02.616Z,31.60
2019-02-23T15:43:15.798Z,31.70
2019-02-23T15:44:55.902Z,31.90
2019-02-23T15:46:44.228Z,32.00
2019-02-23T15:48:52.706Z,31.70
2019-02-23T15:50:27.831Z,32.10
2019-02-23T15:52:03.988Z,32.20
2019-02-23T15:53:39.104Z,32.10
2019-02-23T15:55:25.357Z,32.00
2019-02-23T15:56:51.050Z,32.10
2019-02-23T15:58:27.247Z,32.00
2019-02-23T16:00:02.347Z,32.10
2019-02-23T16:01:37.809Z,32.30
2019-02-23T16:03:12.898Z,32.40
2019-02-23T16:04:47.992Z,32.50
2019-02-23T16:06:23.115Z,32.50
2019-02-23T16:07:58.174Z,32.50
2019-02-23T16:09:33.419Z,32.50
2019-02-23T16:11:08.436Z,32.60
2019-02-23T16:12:43.532Z,32.50
2019-02-23T16:14:18.632Z,32.50
2019-02-23T16:15:53.989Z,32.70
2019-02-23T16:17:29.076Z,32.70
2019-02-23T16:19:04.226Z,32.80
2019-02-23T16:20:39.270Z,32.90
2019-02-23T16:22:14.486Z,33.00
2019-02-23T16:23:49.866Z,33.20
2019-02-23T16:25:24.952Z,33.30
2019-02-23T16:27:00.046Z,33.40
2019-02-23T16:28:35.148Z,33.50
2019-02-23T16:30:11.314Z,33.50
2019-02-23T16:31:46.418Z,33.60
2019-02-23T16:33:21.786Z,33.80
2019-02-23T16:34:57.961Z,33.70
2019-02-23T16:36:33.047Z,33.80
2019-02-23T16:38:08.143Z,34.60
2019-02-23T16:39:43.224Z,34.00
2019-02-23T16:41:18.321Z,34.10
2019-02-23T16:42:53.405Z,34.10
2019-02-23T16:44:31.516Z,33.90
2019-02-23T16:46:05.304Z,34.00
2019-02-23T16:47:40.390Z,34.00
2019-02-23T16:49:15.512Z,34.00
2019-02-23T16:50:50.609Z,33.90
2019-02-23T16:52:25.699Z,34.60
2019-02-23T16:54:00.824Z,34.00
2019-02-23T16:55:35.904Z,34.00
2019-02-23T16:57:10.998Z,34.00
2019-02-23T16:58:46.094Z,34.00
2019-02-23T17:00:21.192Z,34.20
2019-02-23T17:01:56.287Z,34.30
2019-02-23T17:03:31.392Z,34.50
2019-02-23T17:05:07.997Z,34.70
2019-02-23T17:06:43.094Z,35.00
2019-02-23T17:08:18.199Z,35.00
2019-02-23T17:09:53.293Z,35.20
2019-02-23T17:11:29.470Z,35.30
2019-02-23T17:13:04.530Z,35.40
2019-02-23T17:14:39.625Z,35.40
2019-02-23T17:16:14.732Z,35.50
2019-02-23T17:17:51.152Z,35.50
2019-02-23T17:19:26.242Z,35.00
2019-02-23T17:21:01.611Z,35.70
2019-02-23T17:22:37.682Z,35.70
2019-02-23T17:24:12.781Z,35.70
2019-02-23T17:25:47.885Z,35.90
2019-02-23T17:27:35.548Z,36.00
2019-02-23T17:29:00.106Z,36.10
2019-02-23T17:30:35.216Z,36.90
2019-02-23T17:32:10.433Z,36.30
2019-02-23T17:33:45.528Z,36.40
2019-02-23T17:35:20.943Z,36.50
2019-02-23T17:36:56.072Z,36.60
2019-02-23T17:38:31.140Z,36.70
2019-02-23T17:40:07.755Z,36.80
2019-02-23T17:41:42.855Z,36.90
2019-02-23T17:43:18.243Z,37.10
2019-02-23T17:44:53.597Z,37.10
2019-02-23T17:46:29.942Z,37.30
2019-02-23T17:48:05.035Z,37.50
2019-02-23T17:49:40.382Z,37.60
2019-02-23T17:51:15.734Z,37.80
2019-02-23T17:52:51.079Z,38.00
2019-02-23T17:54:27.135Z,38.20
2019-02-23T17:56:02.239Z,38.40
2019-02-23T17:57:37.328Z,38.50
2019-02-23T17:59:12.424Z,38.60
2019-02-23T18:00:47.519Z,38.70
2019-02-23T18:02:22.697Z,38.90
2019-02-23T18:03:57.785Z,39.00
2019-02-23T18:05:32.876Z,39.10
2019-02-23T18:07:07.975Z,39.20
2019-02-23T18:08:43.068Z,39.30
2019-02-23T18:10:18.161Z,39.40
2019-02-23T18:11:53.260Z,39.50
2019-02-23T18:13:28.346Z,39.50
2019-02-23T18:15:04.630Z,39.50
2019-02-23T18:16:39.736Z,39.60
2019-02-23T18:18:15.078Z,39.70
2019-02-23T18:19:51.141Z,39.70
2019-02-23T18:21:26.501Z,39.60
2019-02-23T18:23:01.851Z,39.60
2019-02-23T18:24:36.952Z,39.50
2019-02-23T18:26:12.064Z,39.20
2019-02-23T18:27:47.160Z,39.00
2019-02-23T18:29:22.263Z,38.90
2019-02-23T18:30:57.359Z,38.80
2019-02-23T18:32:32.457Z,38.70
2019-02-23T18:34:07.544Z,38.50
2019-02-23T18:35:42.638Z,38.50
2019-02-23T18:37:17.742Z,38.30
2019-02-23T18:38:52.840Z,38.20
2019-02-23T18:40:27.932Z,38.10
2019-02-23T18:42:03.049Z,38.20
2019-02-23T18:43:38.141Z,38.30
2019-02-23T18:45:13.231Z,38.40
2019-02-23T18:46:48.329Z,38.60
2019-02-23T18:48:23.418Z,38.70
2019-02-23T18:50:00.292Z,38.80
2019-02-23T18:51:35.467Z,39.10
2019-02-23T18:53:10.567Z,39.20
2019-02-23T18:54:45.651Z,39.30
2019-02-23T18:56:20.760Z,39.50
2019-02-23T18:57:55.921Z,39.50
2019-02-23T18:59:31.012Z,39.60
2019-02-23T19:01:06.105Z,39.70
2019-02-23T19:02:41.194Z,39.80
2019-02-23T19:04:16.544Z,39.90
2019-02-23T19:05:51.648Z,40.10
2019-02-23T19:07:26.734Z,40.10
2019-02-23T19:09:02.955Z,40.30
2019-02-23T19:10:39.823Z,40.30
2019-02-23T19:12:14.927Z,40.30
2019-02-23T19:13:50.016Z,40.30
2019-02-23T19:15:25.105Z,40.40
2019-02-23T19:17:00.870Z,40.50
2019-02-23T19:18:36.932Z,40.40
2019-02-23T19:20:14.859Z,40.40
2019-02-23T19:21:52.058Z,40.30
2019-02-23T19:23:27.435Z,40.20
2019-02-23T19:25:02.806Z,40.10
2019-02-23T19:26:38.516Z,40.10
2019-02-23T19:28:14.623Z,40.00
2019-02-23T19:29:49.716Z,39.90
2019-02-23T19:31:24.824Z,39.80
2019-02-23T19:32:59.913Z,39.70
2019-02-23T19:34:35.007Z,39.70
2019-02-23T19:36:10.103Z,39.80
2019-02-23T19:37:45.191Z,39.90
2019-02-23T19:39:20.284Z,39.90
2019-02-23T19:40:55.370Z,39.90
2019-02-23T19:42:30.474Z,40.10
2019-02-23T19:44:05.731Z,39.90
2019-02-23T19:45:40.822Z,39.90
2019-02-23T19:47:16.137Z,40.00
2019-02-23T19:48:52.841Z,39.90
2019-02-23T19:50:40.857Z,39.90
2019-02-23T19:52:17.854Z,39.90
2019-02-23T19:53:53.998Z,39.90
2019-02-23T19:55:29.097Z,40.00
2019-02-23T19:57:04.521Z,40.10
2019-02-23T19:58:39.607Z,40.40
2019-02-23T20:00:14.723Z,40.40
2019-02-23T20:01:49.852Z,40.50
2019-02-23T20:03:24.940Z,40.50
2019-02-23T20:05:00.029Z,40.60
2019-02-23T20:06:35.241Z,40.60
2019-02-23T20:08:10.327Z,40.70
2019-02-23T20:09:45.420Z,40.60
2019-02-23T20:11:20.774Z,40.70
2019-02-23T20:12:56.109Z,40.70
2019-02-23T20:14:32.839Z,40.60
2019-02-23T20:16:07.933Z,40.70
2019-02-23T20:17:43.112Z,40.70
2019-02-23T20:19:19.713Z,40.70
2019-02-23T20:20:54.888Z,40.80
2019-02-23T20:22:29.984Z,40.80
2019-02-23T20:24:05.339Z,41.40
2019-02-23T20:25:40.675Z,40.80
2019-02-23T20:27:16.999Z,40.80
2019-02-23T20:28:52.264Z,40.90
2019-02-23T20:30:27.289Z,40.90
2019-02-23T20:32:03.572Z,40.90
2019-02-23T20:33:38.918Z,41.00
2019-02-23T20:35:14.015Z,41.30
2019-02-23T20:36:49.109Z,41.40
2019-02-23T20:38:24.199Z,41.40
2019-02-23T20:39:59.454Z,41.60
2019-02-23T20:41:34.613Z,41.70
2019-02-23T20:43:09.714Z,41.80
2019-02-23T20:44:44.803Z,41.80
2019-02-23T20:46:19.896Z,41.80
2019-02-23T20:47:55.283Z,42.00
2019-02-23T20:49:30.365Z,42.10
2019-02-23T20:51:05.462Z,42.30
2019-02-23T20:52:40.564Z,42.40
2019-02-23T20:54:15.815Z,42.50
2019-02-23T20:55:52.615Z,42.50
2019-02-23T20:57:27.734Z,42.50
2019-02-23T20:59:03.700Z,42.60
2019-02-23T21:00:39.056Z,42.60
2019-02-23T21:02:14.197Z,42.80
2019-02-23T21:03:49.297Z,42.90